Time;durP1;ratioP1;P1;durP2;ratioP2;P2;SDS_P1;SDS_P2;PMS_P1;PMS_P2;Temp;Humidity;BMP_temperature;BMP_pressure;BME280_temperature;BME280_humidity;BME280_pressure;Samples;Min_cycle;Max_cycle;Signal;HPM_P1;HPM_P2
2022/03/05 00:01:07;;;;;;;25.20;17.30;;;;;;;-2.06;79.85;95961.88;5071625;28;24944;-73
2022/03/05 00:03:34;;;;;;;20.90;15.75;;;;;;;-2.08;80.07;95959.34;5071744;28;24423;-73
2022/03/05 00:06:00;;;;;;;21.60;15.70;;;;;;;-2.12;79.89;95961.94;5071473;28;24958;-73
2022/03/05 00:08:27;;;;;;;24.60;15.60;;;;;;;-2.12;80.24;95964.47;5071339;28;24552;-74
2022/03/05 00:10:54;;;;;;;19.17;15.32;;;;;;;-2.10;80.19;95952.63;5103322;23;24553;-73
2022/03/05 00:13:20;;;;;;;19.67;15.48;;;;;;;-2.17;81.50;95956.09;5051775;28;24489;-72
2022/03/05 00:15:47;;;;;;;20.93;15.90;;;;;;;-2.20;80.79;95954.41;5043753;28;24458;-72
2022/03/05 00:18:15;;;;;;;18.73;15.10;;;;;;;-2.21;80.83;95961.19;5044508;28;24440;-73
2022/03/05 00:20:43;;;;;;;19.15;16.27;;;;;;;-2.27;80.82;95958.69;5031151;28;24523;-72
2022/03/05 00:23:09;;;;;;;22.52;16.60;;;;;;;-2.34;80.87;95963.84;5031730;28;24423;-72
2022/03/05 00:25:37;;;;;;;19.73;15.57;;;;;;;-2.43;81.82;95964.78;5042435;28;24987;-72
2022/03/05 00:28:04;;;;;;;23.58;15.65;;;;;;;-2.38;81.91;95963.03;5050860;28;25003;-72
2022/03/05 00:30:30;;;;;;;19.48;16.35;;;;;;;-2.31;81.13;95962.13;5051029;28;24485;-73
2022/03/05 00:32:57;;;;;;;17.33;13.10;;;;;;;-2.31;80.67;95953.69;5050814;28;24427;-72
2022/03/05 00:35:25;;;;;;;18.73;13.77;;;;;;;-2.36;80.94;95963.03;5051088;28;24940;-72
2022/03/05 00:37:51;;;;;;;16.95;13.10;;;;;;;-2.39;81.26;95963.06;5050951;28;24858;-73
2022/03/05 00:40:18;;;;;;;17.58;14.05;;;;;;;-2.34;81.49;95967.22;5050902;28;24427;-72
2022/03/05 00:42:44;;;;;;;16.17;13.75;;;;;;;-2.47;83.36;95969.03;5050602;28;24415;-72
2022/03/05 00:45:11;;;;;;;19.57;14.73;;;;;;;-2.56;83.59;95963.19;5051461;28;24446;-72
2022/03/05 00:47:38;;;;;;;20.88;15.57;;;;;;;-2.45;83.27;95966.47;5051286;28;24419;-73
2022/03/05 00:50:07;;;;;;;20.02;15.70;;;;;;;-2.49;83.90;95969.91;5051509;28;24573;-73
2022/03/05 00:52:35;;;;;;;20.75;15.80;;;;;;;-2.47;83.22;95963.13;5051342;28;24510;-72
2022/03/05 00:55:02;;;;;;;19.50;15.35;;;;;;;-2.54;83.27;95967.41;5050918;28;24964;-72
2022/03/05 00:57:28;;;;;;;22.85;15.88;;;;;;;-2.62;82.34;95964.09;5051399;28;24447;-72
2022/03/05 00:59:55;;;;;;;21.17;14.98;;;;;;;-2.61;81.81;95967.47;5050881;28;24430;-72
2022/03/05 01:02:21;;;;;;;17.05;14.25;;;;;;;-2.68;82.55;95967.53;5051096;28;24428;-72
2022/03/05 01:04:48;;;;;;;23.42;14.95;;;;;;;-2.70;82.59;95965.88;5051182;28;24439;-72
2022/03/05 01:07:14;;;;;;;18.17;14.93;;;;;;;-2.69;82.52;95963.31;5051212;28;24427;-72
2022/03/05 01:09:42;;;;;;;17.55;13.00;;;;;;;-2.73;82.27;95965.88;5050891;28;24980;-72
2022/03/05 01:12:09;;;;;;;15.20;12.17;;;;;;;-2.79;82.69;95971.84;5050793;28;24430;-72
2022/03/05 01:14:36;;;;;;;15.80;12.20;;;;;;;-2.85;82.07;95971.06;5050826;28;24426;-72
2022/03/05 01:17:03;;;;;;;15.20;12.73;;;;;;;-2.90;82.45;95967.69;5051118;28;24860;-72
2022/03/05 01:19:29;;;;;;;16.33;13.63;;;;;;;-3.06;84.42;95961.91;5050827;28;24442;-73
2022/03/05 01:21:56;;;;;;;17.90;13.77;;;;;;;-3.08;84.58;95966.97;5067433;28;24438;-72
2022/03/05 01:24:22;;;;;;;21.13;14.73;;;;;;;-3.05;84.62;95964.41;5054832;28;24517;-73
2022/03/05 01:26:50;;;;;;;26.90;17.02;;;;;;;-3.00;84.76;95955.13;5050914;28;24432;-72
2022/03/05 01:29:16;;;;;;;25.27;18.98;;;;;;;-2.93;83.70;95956.75;5050588;28;24427;-73
2022/03/05 01:31:43;;;;;;;27.43;17.80;;;;;;;-2.96;82.83;95961.84;5050821;28;24431;-73
2022/03/05 01:34:09;;;;;;;24.77;17.58;;;;;;;-2.95;83.29;95950.84;5050924;28;24419;-72
2022/03/05 01:36:36;;;;;;;30.17;19.73;;;;;;;-2.83;81.71;95949.91;5050762;28;24459;-73
2022/03/05 01:39:02;;;;;;;33.45;20.42;;;;;;;-2.99;82.03;95951.72;5050709;28;24424;-72
2022/03/05 01:41:29;;;;;;;29.08;19.85;;;;;;;-3.12;83.06;95951.81;5050719;28;24431;-73
2022/03/05 01:43:58;;;;;;;28.20;17.77;;;;;;;-3.20;83.13;95950.16;5050788;28;24438;-72
2022/03/05 01:46:29;;;;;;;31.92;19.10;;;;;;;-3.37;83.67;95949.44;5050833;28;24478;-72
2022/03/05 01:48:55;;;;;;;28.98;17.92;;;;;;;-3.30;83.56;95947.69;5050590;28;24473;-72
2022/03/05 01:51:22;;;;;;;27.10;17.42;;;;;;;-3.44;85.43;95953.69;5050839;28;24439;-72
2022/03/05 01:53:48;;;;;;;22.92;16.83;;;;;;;-3.31;84.81;95948.56;5051953;28;24431;-72
2022/03/05 01:56:16;;;;;;;23.10;17.23;;;;;;;-3.25;83.70;95946.81;5054516;28;24434;-72
2022/03/05 01:58:43;;;;;;;19.63;15.63;;;;;;;-3.17;83.14;95940.00;5054618;28;24454;-73
2022/03/05 02:01:11;;;;;;;24.20;16.42;;;;;;;-3.25;83.82;95949.34;5054308;28;25010;-72
2022/03/05 02:03:38;;;;;;;19.67;15.90;;;;;;;-3.19;82.92;95951.88;5054424;28;24433;-73
2022/03/05 02:06:04;;;;;;;23.40;16.50;;;;;;;-3.13;81.90;95950.97;5054466;28;24472;-72
2022/03/05 02:08:31;;;;;;;22.15;15.65;;;;;;;-3.08;81.04;95949.22;5054571;28;24545;-72
2022/03/05 02:10:57;;;;;;;22.88;16.15;;;;;;;-3.05;81.66;95945.84;5054264;28;24427;-72
2022/03/05 02:13:24;;;;;;;20.65;16.13;;;;;;;-3.41;82.75;95945.25;5054424;28;24801;-72
2022/03/05 02:15:54;;;;;;;23.95;16.20;;;;;;;-3.45;83.34;95948.63;5054255;28;24415;-72
2022/03/05 02:18:22;;;;;;;21.67;15.60;;;;;;;-3.52;84.65;95952.91;5053569;28;24998;-72
2022/03/05 02:20:49;;;;;;;21.90;16.00;;;;;;;-3.69;84.38;95942.84;5053967;28;24426;-72
2022/03/05 02:23:16;;;;;;;23.23;15.77;;;;;;;-3.57;85.21;95951.22;5054336;28;24431;-72
2022/03/05 02:25:52;;;;;;;20.90;15.13;;;;;;;-3.49;84.59;95947.78;5054209;28;24489;-72
2022/03/05 02:28:19;;;;;;;17.50;13.70;;;;;;;-3.46;85.13;95949.47;5053988;28;24506;-72
2022/03/05 02:30:45;;;;;;;20.20;14.77;;;;;;;-3.41;84.37;95951.16;5054105;28;24481;-72
2022/03/05 02:33:12;;;;;;;16.70;13.65;;;;;;;-3.44;83.99;95941.03;5054081;28;24435;-72
2022/03/05 02:35:38;;;;;;;19.98;14.40;;;;;;;-3.46;83.88;95936.81;5053768;28;24423;-72
2022/03/05 02:38:06;;;;;;;20.48;14.93;;;;;;;-3.52;83.39;95934.31;5053908;28;24450;-72
2022/03/05 02:40:34;;;;;;;21.52;15.68;;;;;;;-3.54;83.40;95936.88;5053685;28;24965;-72
2022/03/05 02:43:01;;;;;;;20.80;13.97;;;;;;;-3.57;83.15;95931.81;5054683;28;24478;-72
2022/03/05 02:45:27;;;;;;;24.25;14.82;;;;;;;-3.52;81.71;95932.66;5055799;28;24431;-72
2022/03/05 02:47:53;;;;;;;22.70;16.00;;;;;;;-3.50;81.19;95938.53;5054263;28;24480;-72
2022/03/05 02:50:20;;;;;;;19.92;15.05;;;;;;;-3.57;82.08;95934.34;5053436;28;24517;-72
2022/03/05 02:52:46;;;;;;;24.55;16.63;;;;;;;-3.53;82.11;95942.75;5053418;28;24820;-72
2022/03/05 02:55:14;;;;;;;27.38;15.90;;;;;;;-3.52;82.61;95939.38;5053331;28;24427;-73
2022/03/05 02:57:40;;;;;;;22.58;15.18;;;;;;;-3.52;81.83;95939.38;5053129;28;24999;-72
2022/03/05 03:00:08;;;;;;;20.30;14.02;;;;;;;-3.51;82.93;95938.53;5053366;28;24439;-72
2022/03/05 03:02:34;;;;;;;20.33;15.10;;;;;;;-3.51;81.44;95936.00;5053195;28;24430;-72
2022/03/05 03:05:01;;;;;;;18.50;14.15;;;;;;;-3.58;81.44;95942.78;5052584;28;24489;-72
2022/03/05 03:07:28;;;;;;;21.08;15.40;;;;;;;-3.61;80.62;95939.44;5053413;28;24428;-72
2022/03/05 03:09:54;;;;;;;24.85;16.42;;;;;;;-3.73;81.48;95935.28;5053171;28;24477;-72
2022/03/05 03:12:22;;;;;;;23.60;15.07;;;;;;;-3.87;82.12;95934.50;5053026;28;24526;-72
2022/03/05 03:14:48;;;;;;;25.37;15.33;;;;;;;-4.09;83.87;95944.69;5053063;28;24439;-72
2022/03/05 03:17:17;;;;;;;22.70;15.52;;;;;;;-4.15;84.73;95947.25;5053249;28;24448;-72
2022/03/05 03:19:43;;;;;;;18.65;15.25;;;;;;;-4.20;85.03;95946.41;5052943;28;24485;-72
2022/03/05 03:22:10;;;;;;;21.50;15.57;;;;;;;-4.19;85.94;95953.13;5053124;28;24440;-72
2022/03/05 03:24:36;;;;;;;18.58;14.02;;;;;;;-4.18;86.39;95947.25;5053028;28;24435;-72
2022/03/05 03:27:03;;;;;;;18.05;13.00;;;;;;;-4.13;86.91;95945.53;5052808;28;24420;-72
2022/03/05 03:29:31;;;;;;;16.98;13.50;;;;;;;-4.10;87.06;95953.13;5052960;28;24936;-72
2022/03/05 03:31:57;;;;;;;16.80;13.77;;;;;;;-3.94;86.12;95942.09;5052883;28;24952;-72
2022/03/05 03:34:24;;;;;;;16.35;13.73;;;;;;;-3.97;85.11;95948.84;5052615;28;24419;-72
2022/03/05 03:36:50;;;;;;;19.95;14.73;;;;;;;-3.93;85.04;95945.47;5052870;28;24501;-72
2022/03/05 03:39:17;;;;;;;19.88;13.88;;;;;;;-3.94;85.49;95944.63;5052533;28;24423;-72
2022/03/05 03:41:43;;;;;;;17.40;13.45;;;;;;;-4.07;86.53;95940.47;5052506;28;25048;-72
2022/03/05 03:44:10;;;;;;;16.17;12.98;;;;;;;-4.10;87.18;95945.53;5052779;28;24513;-72
2022/03/05 03:46:38;;;;;;;15.93;12.57;;;;;;;-4.08;85.97;95943.81;5053078;28;24427;-72
2022/03/05 03:49:05;;;;;;;17.70;13.20;;;;;;;-4.14;85.98;95939.66;5052866;28;24427;-72
2022/03/05 03:51:31;;;;;;;15.57;13.88;;;;;;;-4.12;86.71;95944.69;5052554;28;24427;-72
2022/03/05 03:53:58;;;;;;;17.10;12.40;;;;;;;-4.12;84.95;95947.22;5052490;28;24419;-72
2022/03/05 03:56:24;;;;;;;19.30;13.23;;;;;;;-4.14;85.85;95954.81;5052214;28;24778;-72
2022/03/05 03:58:50;;;;;;;18.20;13.32;;;;;;;-4.13;85.38;95948.06;5052078;28;24500;-72
2022/03/05 04:01:17;;;;;;;17.98;13.48;;;;;;;-4.10;85.86;95957.34;5052178;28;24485;-72
2022/03/05 04:03:45;;;;;;;14.52;12.98;;;;;;;-4.10;85.51;95954.81;5052074;28;24891;-72
2022/03/05 04:06:11;;;;;;;15.50;12.80;;;;;;;-4.07;83.39;95957.34;5052072;28;25025;-72
2022/03/05 04:08:42;;;;;;;20.02;13.80;;;;;;;-4.09;82.98;95943.84;5052104;28;24815;-72
2022/03/05 04:11:09;;;;;;;16.85;13.15;;;;;;;-4.25;84.09;95948.94;5052086;28;24792;-72
2022/03/05 04:13:36;;;;;;;17.10;13.30;;;;;;;-4.41;84.59;95948.16;5052138;28;24430;-72
2022/03/05 04:16:02;;;;;;;19.87;14.20;;;;;;;-4.44;85.64;95942.25;5051435;28;24457;-72
2022/03/05 04:18:29;;;;;;;18.20;13.63;;;;;;;-4.41;85.24;95952.38;5052142;28;24447;-72
2022/03/05 04:20:56;;;;;;;17.33;13.50;;;;;;;-4.47;84.89;95957.44;5051918;28;24427;-72
2022/03/05 04:23:23;;;;;;;25.23;13.55;;;;;;;-4.50;87.29;95959.94;5051854;28;24435;-72
2022/03/05 04:25:49;;;;;;;14.48;12.85;;;;;;;-4.45;87.14;95955.72;5052019;28;24427;-72
2022/03/05 04:28:16;;;;;;;15.18;12.30;;;;;;;-4.36;86.42;95953.19;5051854;28;24440;-72
2022/03/05 04:30:43;;;;;;;16.67;13.10;;;;;;;-4.31;85.14;95950.66;5052030;28;24431;-72
2022/03/05 04:33:10;;;;;;;16.73;12.75;;;;;;;-4.29;85.90;95954.03;5051961;28;24432;-72
2022/03/05 04:35:36;;;;;;;16.25;12.32;;;;;;;-4.27;85.02;95957.38;5051600;28;24983;-72
2022/03/05 04:38:04;;;;;;;18.35;13.57;;;;;;;-4.15;84.09;95959.91;5051576;28;24463;-72
2022/03/05 04:40:31;;;;;;;20.63;13.75;;;;;;;-4.29;84.25;95954.88;5051625;28;24439;-72
2022/03/05 04:42:59;;;;;;;18.48;13.23;;;;;;;-4.40;85.90;95961.63;5051811;28;24431;-72
2022/03/05 04:45:26;;;;;;;24.03;13.83;;;;;;;-4.48;85.96;95961.63;5051761;28;24442;-72
2022/03/05 04:47:53;;;;;;;19.20;13.32;;;;;;;-4.50;85.86;95959.94;5051580;28;24792;-72
2022/03/05 04:50:20;;;;;;;20.70;13.00;;;;;;;-4.51;86.00;95966.69;5051571;28;24497;-72
2022/03/05 04:52:47;;;;;;;21.48;12.88;;;;;;;-4.47;86.23;95972.59;5051519;28;24438;-72
2022/03/05 04:55:15;;;;;;;22.80;13.68;;;;;;;-4.49;85.54;95970.03;5051266;28;24986;-72
2022/03/05 04:57:41;;;;;;;16.20;12.57;;;;;;;-4.56;86.09;95973.44;5051055;28;25010;-72
2022/03/05 05:00:09;;;;;;;20.02;13.02;;;;;;;-4.60;86.31;95970.91;5051525;28;24427;-72
2022/03/05 05:02:36;;;;;;;17.02;13.80;;;;;;;-4.67;87.61;95973.47;5051398;28;24450;-72
2022/03/05 05:05:02;;;;;;;19.33;13.13;;;;;;;-4.69;87.66;95972.59;5051439;28;24423;-72
2022/03/05 05:07:29;;;;;;;15.68;12.38;;;;;;;-4.66;88.19;95972.59;5051306;28;24431;-72
2022/03/05 05:09:55;;;;;;;21.67;12.63;;;;;;;-4.62;86.55;95973.44;5051293;28;24443;-72
2022/03/05 05:12:24;;;;;;;16.02;12.85;;;;;;;-4.63;86.55;95977.66;5051019;28;24427;-72
2022/03/05 05:14:50;;;;;;;16.85;11.73;;;;;;;-4.63;86.22;95972.59;5051267;28;24530;-72
2022/03/05 05:17:17;;;;;;;19.30;12.30;;;;;;;-4.62;86.45;95973.44;5051187;28;24434;-72
2022/03/05 05:19:43;;;;;;;14.35;12.82;;;;;;;-4.70;85.39;95973.44;5050778;28;24427;-72
2022/03/05 05:22:11;;;;;;;13.65;12.15;;;;;;;-4.64;86.39;95980.19;5050787;28;24442;-72
2022/03/05 05:24:39;;;;;;;16.92;12.10;;;;;;;-4.59;85.40;95980.19;5051009;28;24477;-72
2022/03/05 05:27:06;;;;;;;17.50;12.35;;;;;;;-4.58;85.95;95980.19;5050926;28;24936;-72
2022/03/05 05:29:34;;;;;;;15.20;11.98;;;;;;;-4.57;84.95;95981.84;5050665;28;24424;-72
2022/03/05 05:32:00;;;;;;;14.45;12.45;;;;;;;-4.59;85.09;95980.19;5051122;28;24438;-72
2022/03/05 05:34:27;;;;;;;14.35;11.32;;;;;;;-4.87;88.08;95982.72;5050594;28;24461;-72
2022/03/05 05:36:53;;;;;;;17.13;13.00;;;;;;;-4.78;87.16;95982.72;5050792;28;24439;-72
2022/03/05 05:39:20;;;;;;;15.75;13.13;;;;;;;-4.76;85.24;95991.13;5051343;28;24493;-72
2022/03/05 05:41:46;;;;;;;14.45;12.52;;;;;;;-4.80;86.56;95993.66;5052686;28;24443;-72
2022/03/05 05:44:13;;;;;;;15.35;12.38;;;;;;;-4.85;87.89;95993.66;5050731;28;24428;-71
2022/03/05 05:46:41;;;;;;;16.70;12.68;;;;;;;-4.92;87.54;95992.81;5050383;28;24515;-71
2022/03/05 05:49:07;;;;;;;27.75;18.15;;;;;;;-5.01;87.87;95995.31;5050215;28;24473;-71
2022/03/05 05:51:34;;;;;;;19.33;13.52;;;;;;;-5.01;86.36;95997.84;5050309;28;24427;-73
2022/03/05 05:54:01;;;;;;;19.60;13.55;;;;;;;-5.04;87.51;95999.53;5050365;28;24485;-72
2022/03/05 05:56:27;;;;;;;19.85;14.07;;;;;;;-5.10;89.47;95995.31;5050029;28;24832;-71
2022/03/05 05:58:54;;;;;;;20.48;13.73;;;;;;;-5.01;89.38;96004.59;5050101;28;24509;-71
2022/03/05 06:01:21;;;;;;;16.33;12.48;;;;;;;-5.06;89.32;96013.84;5050151;28;24419;-71
2022/03/05 06:03:50;;;;;;;24.35;13.48;;;;;;;-5.08;88.96;96005.41;5050068;28;24440;-71
2022/03/05 06:06:16;;;;;;;17.13;13.60;;;;;;;-5.09;89.91;96008.78;5037241;28;24443;-71
2022/03/05 06:08:43;;;;;;;29.67;19.52;;;;;;;-4.96;88.13;96013.88;5045331;28;24527;-72
2022/03/05 06:11:10;;;;;;;32.58;21.67;;;;;;;-5.03;88.30;96008.81;5072242;23;25080;-72
2022/03/05 06:13:36;;;;;;;20.90;15.23;;;;;;;-5.08;88.75;96013.81;5049907;28;24494;-72
2022/03/05 06:16:03;;;;;;;27.42;14.60;;;;;;;-5.02;89.53;96023.94;5049673;28;24485;-72
2022/03/05 06:18:30;;;;;;;19.08;13.25;;;;;;;-4.93;90.52;96023.09;5049393;28;24462;-72
2022/03/05 06:20:58;;;;;;;14.85;11.98;;;;;;;-4.78;89.72;96023.16;5049657;28;24442;-72
2022/03/05 06:23:24;;;;;;;18.30;12.60;;;;;;;-4.68;88.50;96027.34;5049805;28;24980;-72
2022/03/05 06:25:51;;;;;;;14.63;12.57;;;;;;;-4.62;88.85;96019.78;5049857;28;24978;-72
2022/03/05 06:28:18;;;;;;;21.50;13.82;;;;;;;-4.51;86.84;96026.53;5049606;28;24477;-72
2022/03/05 06:30:45;;;;;;;17.67;12.95;;;;;;;-4.42;87.29;96026.50;5049700;28;24481;-72
2022/03/05 06:33:11;;;;;;;19.07;13.53;;;;;;;-4.41;88.02;96025.69;5049828;28;24423;-72
2022/03/05 06:35:38;;;;;;;16.55;12.75;;;;;;;-4.27;88.64;96021.44;5049563;28;24415;-72
2022/03/05 06:38:06;;;;;;;18.65;12.90;;;;;;;-4.11;87.54;96029.03;5049384;28;24446;-72
2022/03/05 06:40:33;;;;;;;16.85;13.82;;;;;;;-4.07;86.72;96029.00;5051789;28;24473;-72
2022/03/05 06:42:59;;;;;;;15.82;13.70;;;;;;;-3.80;86.04;96034.84;5053148;28;24817;-73
2022/03/05 06:45:26;;;;;;;15.73;12.98;;;;;;;-3.70;85.96;96034.81;5053296;28;24781;-72
2022/03/05 06:47:53;;;;;;;14.55;12.05;;;;;;;-3.61;86.40;96045.75;5053082;28;24422;-72
2022/03/05 06:50:19;;;;;;;17.65;12.40;;;;;;;-3.56;86.86;96036.44;5052996;28;24423;-72
2022/03/05 06:52:46;;;;;;;15.73;13.23;;;;;;;-3.48;88.16;96049.94;5053404;28;24785;-71
2022/03/05 06:55:16;;;;;;;19.77;13.13;;;;;;;-3.35;87.46;96045.66;5053037;28;24431;-73
2022/03/05 06:57:43;;;;;;;21.00;12.98;;;;;;;-3.26;87.80;96045.63;5052792;28;24659;-73
2022/03/05 07:00:12;;;;;;;16.67;13.10;;;;;;;-3.20;86.74;96055.72;5053056;28;24489;-73
2022/03/05 07:02:38;;;;;;;16.77;13.07;;;;;;;-3.02;87.11;96048.03;5052869;28;24476;-73
2022/03/05 07:05:05;;;;;;;15.63;12.50;;;;;;;-2.96;89.26;96048.00;5053063;28;24430;-73
2022/03/05 07:07:32;;;;;;;21.02;13.40;;;;;;;-2.71;88.95;96050.38;5053208;28;24486;-73
2022/03/05 07:09:59;;;;;;;15.05;12.95;;;;;;;-2.53;89.66;96051.94;5053110;28;24423;-73
2022/03/05 07:12:27;;;;;;;15.70;12.52;;;;;;;-2.31;87.33;96045.84;5086825;28;24422;-73
2022/03/05 07:14:53;;;;;;;17.88;13.73;;;;;;;-2.15;84.76;96055.84;5092926;28;24799;-73
2022/03/05 07:17:20;;;;;;;15.77;12.38;;;;;;;-1.97;85.15;96051.44;5092572;28;24423;-73
2022/03/05 07:19:46;;;;;;;17.70;14.48;;;;;;;-1.76;84.32;96047.03;5091763;28;25012;-73
2022/03/05 07:22:13;;;;;;;24.80;17.30;;;;;;;-1.55;82.71;96045.97;5093203;28;24426;-73
2022/03/05 07:24:40;;;;;;;29.40;18.27;;;;;;;-1.26;80.66;96050.69;5093181;28;24440;-73
2022/03/05 07:27:06;;;;;;;22.27;17.58;;;;;;;-1.12;77.43;96042.91;5092982;28;24426;-73
2022/03/05 07:29:34;;;;;;;26.03;19.63;;;;;;;-1.44;75.52;96046.69;5092642;28;24429;-73
2022/03/05 07:32:03;;;;;;;26.70;18.63;;;;;;;-1.31;77.97;96048.22;5092648;28;24429;-73
2022/03/05 07:34:30;;;;;;;25.33;15.80;;;;;;;-1.15;77.86;96045.47;5092797;28;24978;-73
2022/03/05 07:36:56;;;;;;;22.77;14.05;;;;;;;-1.25;76.26;96040.53;5092946;28;24969;-73
2022/03/05 07:39:23;;;;;;;17.45;14.45;;;;;;;-0.88;77.45;96046.84;5092279;28;24971;-73
2022/03/05 07:41:49;;;;;;;17.63;14.73;;;;;;;-1.01;76.26;96046.13;5092538;28;24574;-73
2022/03/05 07:44:15;;;;;;;22.67;15.25;;;;;;;-1.08;76.74;96054.69;5092447;28;24475;-73
2022/03/05 07:46:43;;;;;;;19.25;15.10;;;;;;;-0.73;77.87;96061.88;5092650;28;24457;-73
2022/03/05 07:49:10;;;;;;;23.17;16.05;;;;;;;-0.75;77.38;96053.41;5092375;28;24519;-73
2022/03/05 07:51:37;;;;;;;22.80;16.13;;;;;;;-0.75;78.06;96054.25;5092345;28;24452;-73
2022/03/05 07:54:04;;;;;;;18.17;14.95;;;;;;;-0.51;76.27;96054.78;5092135;28;24510;-73
2022/03/05 07:56:30;;;;;;;20.50;16.55;;;;;;;-0.08;76.15;96054.09;5092043;28;24417;-73
2022/03/05 07:58:56;;;;;;;17.48;15.57;;;;;;;0.31;74.39;96059.38;5091672;28;24438;-73
2022/03/05 08:01:23;;;;;;;19.95;15.65;;;;;;;0.64;72.99;96058.72;5092225;28;24451;-73
2022/03/05 08:03:51;;;;;;;28.17;16.42;;;;;;;0.82;70.61;96054.16;5092068;28;24414;-73
2022/03/05 08:06:17;;;;;;;33.75;21.83;;;;;;;0.84;68.60;96054.94;5092031;28;24962;-73
2022/03/05 08:08:43;;;;;;;24.10;20.63;;;;;;;0.58;75.17;96060.56;5091711;28;24505;-73
2022/03/05 08:11:11;;;;;;;18.60;15.88;;;;;;;1.26;73.01;96058.31;5091552;28;24491;-73
2022/03/05 08:13:38;;;;;;;21.70;16.50;;;;;;;1.40;72.93;96058.84;5091713;28;24418;-73
2022/03/05 08:16:05;;;;;;;27.88;16.65;;;;;;;1.90;71.99;96061.13;5091826;28;24410;-73
2022/03/05 08:18:31;;;;;;;21.25;16.75;;;;;;;2.16;71.05;96063.03;5091284;28;24975;-73
2022/03/05 08:20:59;;;;;;;24.65;16.80;;;;;;;2.22;69.40;96067.13;5091774;28;24426;-73
2022/03/05 08:23:25;;;;;;;24.35;15.93;;;;;;;2.20;66.85;96063.78;5091684;28;24421;-74
2022/03/05 08:25:52;;;;;;;21.98;17.88;;;;;;;2.18;67.88;96058.69;5091601;28;24429;-74
2022/03/05 08:28:20;;;;;;;22.10;18.13;;;;;;;2.34;66.19;96065.13;5091219;28;24491;-74
2022/03/05 08:30:46;;;;;;;19.02;16.42;;;;;;;2.31;69.33;96057.53;5087264;28;24449;-74
2022/03/05 08:33:13;;;;;;;26.75;17.17;;;;;;;2.14;65.95;96057.09;5091593;28;24430;-76
2022/03/05 08:35:39;;;;;;;24.75;17.30;;;;;;;1.96;67.93;96060.94;5091301;28;24942;-73
2022/03/05 08:38:07;;;;;;;23.40;17.63;;;;;;;2.11;67.57;96054.63;5085083;28;24820;-74
2022/03/05 08:40:34;;;;;;;23.52;17.02;;;;;;;2.08;68.43;96055.56;5074452;28;25040;-74
2022/03/05 08:43:01;;;;;;;20.08;16.73;;;;;;;2.29;66.29;96059.25;5091312;28;24418;-73
2022/03/05 08:45:27;;;;;;;22.70;17.25;;;;;;;2.40;67.73;96053.88;5090912;28;24966;-73
2022/03/05 08:47:54;;;;;;;23.20;17.05;;;;;;;2.33;64.48;96052.34;5090873;28;24483;-73
2022/03/05 08:50:20;;;;;;;20.30;15.88;;;;;;;2.42;65.03;96047.84;5091742;28;24479;-73
2022/03/05 08:52:47;;;;;;;24.27;17.50;;;;;;;2.47;65.97;96057.94;5097663;28;24433;-75
2022/03/05 08:55:16;;;;;;;19.38;16.10;;;;;;;2.70;65.05;96049.66;5111173;28;24464;-74
2022/03/05 08:57:43;;;;;;;20.33;16.47;;;;;;;2.87;64.22;96047.47;5111164;28;24437;-74
2022/03/05 09:00:13;;;;;;;20.52;16.17;;;;;;;3.06;66.14;96055.47;5099794;28;24547;-74
2022/03/05 09:02:40;;;;;;;20.83;15.95;;;;;;;3.20;63.09;96049.13;5090180;28;24487;-74
2022/03/05 09:05:07;;;;;;;21.80;17.52;;;;;;;3.31;63.87;96053.03;5090682;28;24421;-74
2022/03/05 09:07:33;;;;;;;20.98;15.15;;;;;;;3.46;60.51;96054.28;5090350;28;24803;-74
2022/03/05 09:10:00;;;;;;;22.00;16.17;;;;;;;3.60;64.87;96056.44;5090971;28;24436;-73
2022/03/05 09:12:28;;;;;;;23.23;16.10;;;;;;;3.68;61.73;96057.03;5090854;28;24475;-74
2022/03/05 09:14:54;;;;;;;23.63;15.83;;;;;;;3.54;61.94;96048.94;5090746;28;24490;-74
2022/03/05 09:17:20;;;;;;;17.90;14.18;;;;;;;3.45;59.90;96042.38;5090892;28;24475;-74
2022/03/05 09:19:47;;;;;;;17.38;13.75;;;;;;;3.28;57.90;96047.16;5090296;28;24548;-74
2022/03/05 09:22:13;;;;;;;21.77;15.05;;;;;;;3.41;61.19;96045.91;5090334;28;24418;-74
2022/03/05 09:24:40;;;;;;;16.55;13.93;;;;;;;3.55;62.23;96038.63;5090579;28;24424;-74
2022/03/05 09:27:07;;;;;;;15.30;12.77;;;;;;;3.49;56.15;96043.13;5090303;28;24951;-75
2022/03/05 09:29:34;;;;;;;15.33;12.37;;;;;;;3.63;60.10;96043.53;5090352;28;24549;-74
2022/03/05 09:32:02;;;;;;;17.30;12.48;;;;;;;3.88;56.46;96038.47;5090379;28;24772;-74
2022/03/05 09:34:29;;;;;;;15.80;12.63;;;;;;;3.74;57.08;96040.63;5090503;28;24579;-74
2022/03/05 09:36:56;;;;;;;17.60;12.38;;;;;;;3.86;55.51;96042.81;5090223;28;24479;-74
2022/03/05 09:39:22;;;;;;;16.15;12.48;;;;;;;3.62;54.74;96046.97;5090193;28;24864;-76
2022/03/05 09:41:49;;;;;;;15.30;12.15;;;;;;;3.56;54.67;96045.47;5090512;28;24418;-75
2022/03/05 09:44:16;;;;;;;12.52;11.20;;;;;;;3.58;55.16;96051.34;5090288;28;24830;-75
2022/03/05 09:46:45;;;;;;;16.45;11.57;;;;;;;3.68;54.23;96048.53;5090186;28;24784;-75
2022/03/05 09:49:11;;;;;;;17.13;12.07;;;;;;;4.03;53.88;96048.22;5089973;28;24411;-75
2022/03/05 09:51:38;;;;;;;18.33;12.70;;;;;;;4.24;55.02;96046.69;5090033;28;24426;-75
2022/03/05 09:54:04;;;;;;;16.00;12.90;;;;;;;4.28;54.10;96044.84;5090411;28;24427;-74
2022/03/05 09:56:31;;;;;;;14.98;11.13;;;;;;;4.28;53.86;96037.16;5090371;28;24421;-74
2022/03/05 09:58:57;;;;;;;13.70;11.10;;;;;;;4.34;52.18;96035.22;5089950;28;24846;-75
2022/03/05 10:01:24;;;;;;;16.30;11.20;;;;;;;4.73;56.81;96026.19;5090122;28;25036;-74
2022/03/05 10:03:55;;;;;;;12.00;9.98;;;;;;;4.59;49.40;96036.94;5090127;28;24422;-73
2022/03/05 10:06:23;;;;;;;11.18;9.40;;;;;;;4.65;49.23;96033.34;5090052;28;24931;-73
2022/03/05 10:08:51;;;;;;;12.80;9.65;;;;;;;4.94;49.21;96030.56;5089997;28;24454;-73
2022/03/05 10:11:18;;;;;;;12.50;9.63;;;;;;;4.76;49.95;96032.06;5090024;28;24418;-74
2022/03/05 10:13:45;;;;;;;13.23;8.93;;;;;;;4.94;49.90;96030.56;5090058;28;24464;-74
2022/03/05 10:16:29;;;;;;;13.80;9.90;;;;;;;4.83;47.18;96028.38;5093101;28;24415;-74
2022/03/05 10:18:57;;;;;;;15.00;10.52;;;;;;;4.99;50.76;96031.22;5090919;28;24462;-74
2022/03/05 10:21:29;;;;;;;12.00;9.65;;;;;;;5.01;51.36;96039.72;5093718;28;24768;-73
2022/03/05 10:24:05;;;;;;;13.40;9.30;;;;;;;4.92;46.71;96029.75;5094039;28;24567;-74
2022/03/05 10:26:51;;;;;;;10.32;8.85;;;;;;;4.84;50.01;96026.66;5093990;28;24437;-74
2022/03/05 10:29:22;;;;;;;11.60;9.67;;;;;;;4.83;47.62;96030.94;5094101;28;24514;-74
2022/03/05 10:31:59;;;;;;;15.27;9.48;;;;;;;4.69;47.85;96027.19;5093734;28;24433;-73
2022/03/05 10:34:26;;;;;;;11.00;8.83;;;;;;;4.80;48.97;96015.66;5094039;28;24420;-74
2022/03/05 10:37:02;;;;;;;8.63;7.72;;;;;;;4.53;46.18;96020.03;5093481;28;24422;-74
2022/03/05 10:39:29;;;;;;;11.23;8.00;;;;;;;4.58;46.12;96018.16;5093017;28;24878;-74
2022/03/05 10:41:56;;;;;;;10.30;8.37;;;;;;;4.58;49.37;96025.84;5093514;28;24431;-74
2022/03/05 10:44:24;;;;;;;13.57;8.52;;;;;;;4.51;46.21;96020.97;5093488;28;24475;-74
2022/03/05 10:46:56;;;;;;;12.05;9.38;;;;;;;4.73;47.81;96015.94;5093645;28;24771;-74
2022/03/05 10:49:24;;;;;;;14.02;9.95;;;;;;;4.89;46.68;96014.47;5093114;28;24501;-75
2022/03/05 10:52:03;;;;;;;12.60;9.45;;;;;;;4.98;46.31;96021.03;5092948;28;24418;-73
2022/03/05 10:54:31;;;;;;;9.97;8.93;;;;;;;5.03;47.50;96021.66;5093369;28;24407;-74
2022/03/05 10:57:06;;;;;;;11.20;9.43;;;;;;;5.12;44.19;96020.47;5093209;28;24418;-73
2022/03/05 10:59:35;;;;;;;13.57;10.27;;;;;;;5.27;47.51;96025.91;5092769;28;24502;-73
2022/03/05 11:02:02;;;;;;;14.15;9.85;;;;;;;4.95;48.13;96009.13;5093055;28;24438;-74
2022/03/05 11:04:30;;;;;;;13.57;9.63;;;;;;;4.94;47.54;96020.28;5092866;28;24430;-73
2022/03/05 11:06:59;;;;;;;17.63;10.02;;;;;;;4.99;48.20;96013.25;5092794;28;24951;-76
2022/03/05 11:09:27;;;;;;;13.65;10.07;;;;;;;5.13;47.60;96023.00;5092868;28;24463;-75
2022/03/05 11:11:54;;;;;;;13.00;9.68;;;;;;;5.20;46.99;96016.75;5092807;28;24429;-75
2022/03/05 11:14:20;;;;;;;14.05;10.07;;;;;;;5.04;48.93;96011.38;5092849;28;24455;-73
2022/03/05 11:16:47;;;;;;;12.02;10.32;;;;;;;5.08;48.16;96012.09;5092541;28;24414;-73
2022/03/05 11:19:15;;;;;;;12.35;10.30;;;;;;;4.72;49.65;96012.53;5092816;28;24472;-73